Time;durP1;ratioP1;P1;durP2;ratioP2;P2;SDS_P1;SDS_P2;PMS_P1;PMS_P2;Temp;Humidity;BMP_temperature;BMP_pressure;BME280_temperature;BME280_humidity;BME280_pressure;Samples;Min_cycle;Max_cycle;Signal;HPM_P1;HPM_P2
2022/03/09 00:01:55;;;;;;;19.90;13.23;;;2.30;1.00;3.00;101181.00;;;;5015173;28;20466;-78
2022/03/09 00:04:25;;;;;;;16.03;12.03;;;2.30;1.00;3.30;101228.00;;;;5005555;28;20855;-78
2022/03/09 00:06:54;;;;;;;17.40;13.53;;;2.40;1.00;3.00;101232.00;;;;5006554;28;20497;-77
2022/03/09 00:09:25;;;;;;;17.80;14.40;;;2.40;1.00;3.10;101223.00;;;;5000352;28;20895;-78
2022/03/09 00:11:54;;;;;;;19.77;15.43;;;2.40;1.00;2.90;101245.00;;;;4999871;28;20461;-78
2022/03/09 00:14:22;;;;;;;27.10;16.43;;;2.30;1.00;2.90;101188.00;;;;5007189;28;20449;-79
2022/03/09 00:16:52;;;;;;;21.30;16.43;;;2.30;1.00;2.80;101237.00;;;;4993147;28;21033;-77
2022/03/09 00:19:21;;;;;;;23.07;16.33;;;2.30;1.00;2.80;101242.00;;;;5010230;28;20458;-77
2022/03/09 00:21:50;;;;;;;20.17;15.53;;;2.20;1.00;2.70;101229.00;;;;5036154;28;20461;-78
2022/03/09 00:24:19;;;;;;;29.20;18.10;;;2.10;1.00;2.60;101240.00;;;;5018142;28;20477;-77
2022/03/09 00:26:48;;;;;;;20.97;16.73;;;2.10;1.00;2.60;101216.00;;;;5012970;28;20564;-80
2022/03/09 00:29:17;;;;;;;20.53;14.97;;;2.00;1.00;2.60;101251.00;;;;5007772;28;20457;-79
2022/03/09 00:31:46;;;;;;;20.57;17.43;;;2.00;1.00;2.50;101241.00;;;;5004170;28;20501;-79
2022/03/09 00:34:16;;;;;;;23.70;17.87;;;2.30;1.00;2.50;101245.00;;;;5018364;28;20560;-78
2022/03/09 00:36:44;;;;;;;20.03;14.80;;;1.90;1.00;2.70;101257.00;;;;4998721;28;20503;-78
2022/03/09 00:39:13;;;;;;;17.50;14.53;;;1.90;1.00;2.90;101216.00;;;;4996543;28;20486;-79
2022/03/09 00:41:41;;;;;;;19.30;14.73;;;2.00;1.00;2.70;101260.00;;;;4998892;28;20458;-77
2022/03/09 00:44:09;;;;;;;22.77;16.40;;;2.00;1.00;2.60;101258.00;;;;4997347;28;20483;-79
2022/03/09 00:46:38;;;;;;;23.37;18.80;;;2.00;1.00;2.60;101236.00;;;;5015001;28;20577;-79
2022/03/09 00:49:06;;;;;;;22.90;18.00;;;2.00;1.00;2.50;101242.00;;;;4996010;28;20451;-78
2022/03/09 00:51:38;;;;;;;26.03;18.53;;;1.90;1.00;2.40;101251.00;;;;5000374;28;20462;-79
2022/03/09 00:54:06;;;;;;;26.43;18.50;;;2.00;1.00;2.50;101265.00;;;;5017256;28;20841;-79
2022/03/09 00:56:38;;;;;;;19.60;13.47;;;1.80;1.00;2.50;101260.00;;;;5004213;28;20533;-80
2022/03/09 00:59:06;;;;;;;20.17;16.40;;;1.80;1.00;2.60;101259.00;;;;5004677;28;20825;-77
2022/03/09 01:01:35;;;;;;;19.80;14.70;;;1.90;1.00;2.50;101245.00;;;;5001072;28;20989;-77
2022/03/09 01:04:04;;;;;;;20.37;14.70;;;1.90;1.00;2.40;66820.00;;;;4990012;28;20471;-77
2022/03/09 01:06:32;;;;;;;22.60;14.13;;;1.90;1.00;2.50;101251.00;;;;5002277;28;20480;-77
2022/03/09 01:09:03;;;;;;;32.67;23.43;;;1.90;1.00;2.40;101257.00;;;;5021504;28;20455;-77
2022/03/09 01:11:32;;;;;;;25.50;18.40;;;1.70;1.00;2.40;101250.00;;;;5012600;28;20524;-79
2022/03/09 01:14:01;;;;;;;22.80;17.83;;;1.70;1.00;2.50;101244.00;;;;5022470;28;20481;-79
2022/03/09 01:16:29;;;;;;;23.20;16.90;;;2.10;1.00;2.60;101223.00;;;;5020511;28;20500;-80
2022/03/09 01:18:58;;;;;;;20.83;15.80;;;1.70;1.00;2.40;101260.00;;;;5003684;28;20469;-79
2022/03/09 01:21:27;;;;;;;21.20;15.80;;;1.70;1.00;2.20;101248.00;;;;4999496;28;20463;-79
2022/03/09 01:23:55;;;;;;;22.47;16.57;;;2.00;1.00;2.20;101258.00;;;;5012051;28;20487;-78
2022/03/09 01:26:26;;;;;;;32.00;23.80;;;1.60;1.00;2.10;66720.00;;;;4997241;28;20480;-80
2022/03/09 01:28:54;;;;;;;31.27;24.13;;;1.60;1.00;2.00;101232.00;;;;5012372;28;20450;-79
2022/03/09 01:31:23;;;;;;;28.57;22.37;;;1.50;1.00;1.90;101246.00;;;;4996529;28;20530;-80
2022/03/09 01:33:51;;;;;;;22.20;17.83;;;1.40;1.00;2.10;101256.00;;;;4994509;28;20466;-80
2022/03/09 01:36:19;;;;;;;15.60;12.47;;;1.40;1.00;2.30;101257.00;;;;4995750;28;20862;-80
2022/03/09 01:38:49;;;;;;;20.50;14.80;;;1.40;1.00;2.00;101238.00;;;;4994053;28;20557;-79
2022/03/09 01:41:17;;;;;;;20.90;16.37;;;1.40;1.00;2.10;101239.00;;;;4996350;28;20454;-79
2022/03/09 01:44:06;;;;;;;17.97;15.00;;;1.40;1.00;2.10;101229.00;;;;4998075;28;20482;-79
2022/03/09 01:46:34;;;;;;;21.47;16.90;;;1.50;1.00;2.00;101247.00;;;;5013706;28;20489;-78
2022/03/09 01:49:03;;;;;;;23.83;18.53;;;1.40;1.00;2.00;101250.00;;;;4997127;28;20541;-79
2022/03/09 01:51:33;;;;;;;20.40;17.00;;;1.40;1.00;2.00;101213.00;;;;5004256;28;20458;-80
2022/03/09 01:54:02;;;;;;;18.07;13.87;;;1.40;1.00;2.10;101243.00;;;;5002669;28;20465;-79
2022/03/09 01:56:30;;;;;;;21.43;15.70;;;1.40;1.00;2.00;101240.00;;;;5001364;28;20573;-80
2022/03/09 01:59:02;;;;;;;21.13;15.97;;;1.40;1.00;2.00;101239.00;;;;5020374;28;20504;-80
2022/03/09 02:01:31;;;;;;;19.83;15.33;;;1.40;1.00;2.00;101214.00;;;;5035121;28;20447;-80
2022/03/09 02:04:03;;;;;;;17.57;12.60;;;1.40;1.00;1.90;101227.00;;;;5025838;28;20454;-80
2022/03/09 02:06:33;;;;;;;19.47;16.87;;;1.40;1.00;1.90;101213.00;;;;5024399;28;20489;-78
2022/03/09 02:11:49;;;;;;;24.90;17.57;;;1.30;1.00;1.80;101215.00;;;;5002091;28;20445;-80
2022/03/09 02:14:31;;;;;;;18.07;15.30;;;1.30;1.00;1.80;101195.00;;;;5009404;28;20468;-80
2022/03/09 02:17:05;;;;;;;18.70;15.43;;;1.30;1.00;1.80;100796.00;;;;5002984;28;20470;-80
2022/03/09 02:19:34;;;;;;;19.50;15.27;;;1.30;1.00;1.80;101206.00;;;;5013889;28;20474;-81
2022/03/09 02:22:08;;;;;;;17.50;15.13;;;1.20;1.00;1.80;101218.00;;;;5021641;28;20446;-80
2022/03/09 02:24:37;;;;;;;22.83;16.93;;;1.20;1.00;1.80;101237.00;;;;5020078;28;20510;-80
2022/03/09 02:27:06;;;;;;;16.77;13.23;;;1.20;1.00;1.80;101226.00;;;;5006688;28;20490;-79
2022/03/09 02:29:34;;;;;;;21.37;15.33;;;1.20;1.00;1.70;101217.00;;;;5010752;28;20451;-80
2022/03/09 02:32:03;;;;;;;22.73;18.77;;;1.20;1.00;1.70;101234.00;;;;4995124;28;20454;-79
2022/03/09 02:34:32;;;;;;;19.80;14.87;;;1.10;1.00;1.70;101194.00;;;;4995525;28;20466;-80
2022/03/09 02:37:01;;;;;;;18.67;15.77;;;1.10;1.00;1.80;101216.00;;;;5011611;28;20474;-79
2022/03/09 02:39:29;;;;;;;15.90;13.37;;;1.10;1.00;1.80;101220.00;;;;5003361;28;20972;-79
2022/03/09 02:41:59;;;;;;;19.53;14.20;;;1.10;1.00;1.70;101197.00;;;;4998398;28;20545;-79
2022/03/09 02:44:27;;;;;;;17.63;14.97;;;1.00;1.00;1.60;66596.00;;;;5004890;28;20493;-80
2022/03/09 02:46:56;;;;;;;17.60;13.47;;;1.00;1.00;1.60;101205.00;;;;5010247;28;20481;-79
2022/03/09 02:49:24;;;;;;;16.63;11.57;;;1.00;1.00;1.40;101221.00;;;;5007689;28;20485;-79
2022/03/09 02:51:53;;;;;;;19.23;12.80;;;1.00;1.00;1.50;101191.00;;;;5007795;28;20493;-78
2022/03/09 02:54:21;;;;;;;18.20;15.80;;;0.90;1.00;1.40;101220.00;;;;5010977;28;20514;-79
2022/03/09 02:56:50;;;;;;;16.40;14.23;;;0.90;1.00;1.60;101210.00;;;;5011031;28;20480;-80
2022/03/09 02:59:19;;;;;;;15.18;11.80;;;0.80;1.00;1.70;101212.00;;;;5009845;28;20906;-79
2022/03/09 03:01:48;;;;;;;15.40;12.70;;;0.90;1.00;1.50;66583.00;;;;5006175;28;20203;-81
2022/03/09 03:04:16;;;;;;;14.73;11.03;;;0.90;1.00;1.50;101215.00;;;;5007660;28;20464;-80
2022/03/09 03:06:45;;;;;;;14.80;12.17;;;0.80;1.00;1.40;101206.00;;;;5012983;28;20490;-80
2022/03/09 03:09:13;;;;;;;19.70;16.00;;;0.80;1.00;1.30;101207.00;;;;5014515;28;20450;-80
2022/03/09 03:11:42;;;;;;;25.60;18.97;;;0.80;1.00;1.20;101205.00;;;;5040185;28;20459;-79
2022/03/09 03:14:10;;;;;;;15.23;13.10;;;0.70;1.00;1.20;101189.00;;;;5021121;28;20434;-79
2022/03/09 03:16:40;;;;;;;20.43;13.57;;;0.60;1.00;1.10;101194.00;;;;5035089;28;20480;-79
2022/03/09 03:19:08;;;;;;;18.20;13.17;;;0.60;1.00;1.10;101206.00;;;;5023769;28;20514;-79
2022/03/09 03:21:37;;;;;;;18.20;15.10;;;0.50;1.00;1.00;101186.00;;;;5022958;28;20465;-80
2022/03/09 03:24:07;;;;;;;16.47;13.27;;;0.50;1.00;1.10;101201.00;;;;5018762;28;20489;-79
2022/03/09 03:26:35;;;;;;;12.30;10.87;;;0.50;1.00;1.20;100899.00;;;;5023080;28;20494;-79
2022/03/09 03:29:04;;;;;;;14.77;11.60;;;0.50;1.00;1.20;101201.00;;;;5016445;28;20525;-80
2022/03/09 03:31:33;;;;;;;15.97;11.80;;;0.60;1.00;1.20;101198.00;;;;5021800;28;20445;-80
2022/03/09 03:34:03;;;;;;;17.47;13.90;;;0.60;1.00;1.20;101174.00;;;;5012807;28;20446;-80
2022/03/09 03:36:32;;;;;;;19.20;14.77;;;0.60;1.00;1.10;101198.00;;;;5037325;28;20485;-79
2022/03/09 03:39:00;;;;;;;17.93;14.13;;;0.50;1.00;1.00;101217.00;;;;5020509;28;20439;-79
2022/03/09 03:41:28;;;;;;;12.80;9.43;;;0.40;1.00;0.90;101213.00;;;;5036839;28;20485;-79
2022/03/09 03:43:57;;;;;;;13.10;9.30;;;0.40;1.00;1.20;101129.00;;;;5020939;28;20462;-80
2022/03/09 03:46:25;;;;;;;12.20;10.00;;;0.50;1.00;1.30;101184.00;;;;5029560;28;20512;-80
2022/03/09 03:48:56;;;;;;;12.30;8.70;;;0.70;1.00;1.10;101200.00;;;;5028610;28;20561;-80
2022/03/09 03:51:26;;;;;;;16.33;11.50;;;0.50;1.00;1.00;101223.00;;;;5026104;28;20542;-81
2022/03/09 03:53:57;;;;;;;13.30;10.60;;;0.40;1.00;0.90;101214.00;;;;5017719;28;20430;-80
2022/03/09 03:56:25;;;;;;;12.97;10.43;;;0.40;1.00;1.10;101221.00;;;;5044084;28;20497;-81
2022/03/09 03:58:54;;;;;;;12.63;9.10;;;0.40;1.00;1.00;101211.00;;;;5026148;28;20457;-79
2022/03/09 04:01:22;;;;;;;14.90;9.47;;;0.40;1.00;0.80;101203.00;;;;5013491;28;20436;-81
2022/03/09 04:03:51;;;;;;;13.23;9.30;;;0.30;1.00;0.80;101221.00;;;;5018153;28;20449;-80
2022/03/09 04:06:19;;;;;;;15.73;12.07;;;0.20;1.00;0.80;101202.00;;;;5022925;28;20559;-79
2022/03/09 04:08:49;;;;;;;18.95;12.70;;;0.30;1.00;0.80;101239.00;;;;5010610;28;20456;-80
2022/03/09 04:11:17;;;;;;;19.03;12.77;;;0.20;1.00;0.70;101227.00;;;;5026320;28;20294;-80
2022/03/09 04:13:46;;;;;;;15.23;11.17;;;0.60;1.00;0.70;66411.00;;;;5017526;28;20527;-80
2022/03/09 04:16:14;;;;;;;12.10;9.65;;;0.20;1.00;0.70;101217.00;;;;5016783;28;20501;-80
2022/03/09 04:18:43;;;;;;;16.50;11.47;;;0.20;1.00;0.80;101207.00;;;;5018336;28;20222;-81
2022/03/09 04:21:11;;;;;;;16.90;12.37;;;0.20;1.00;0.70;101211.00;;;;5017338;28;20466;-78
2022/03/09 04:23:39;;;;;;;12.60;10.93;;;0.10;1.00;0.90;101232.00;;;;5014297;28;20450;-79
2022/03/09 04:26:11;;;;;;;13.30;9.63;;;0.10;1.00;1.00;101195.00;;;;5006519;28;20609;-78
2022/03/09 04:28:39;;;;;;;11.68;8.48;;;0.20;1.00;1.00;101237.00;;;;5003817;28;20442;-78
2022/03/09 04:31:08;;;;;;;12.47;10.00;;;0.50;1.00;0.90;101233.00;;;;4994355;28;20199;-78
2022/03/09 04:33:36;;;;;;;12.50;10.10;;;0.30;1.00;0.80;101224.00;;;;4995615;28;20498;-79
2022/03/09 04:36:06;;;;;;;17.50;12.02;;;0.30;1.00;0.80;101242.00;;;;4992400;28;20581;-79
2022/03/09 04:38:35;;;;;;;14.27;10.33;;;0.20;1.00;0.60;101197.00;;;;5001689;28;20295;-80
2022/03/09 04:41:04;;;;;;;12.40;9.23;;;0.20;1.00;0.80;101225.00;;;;4991101;28;20457;-79
2022/03/09 04:43:33;;;;;;;12.80;9.90;;;0.10;1.00;0.80;101217.00;;;;5006900;28;20486;-79
2022/03/09 04:46:02;;;;;;;14.33;9.90;;;0.20;1.00;0.90;101238.00;;;;5007557;28;20470;-79
2022/03/09 04:48:31;;;;;;;14.70;10.23;;;0.60;1.00;0.80;101216.00;;;;4992013;28;20505;-79
2022/03/09 04:51:02;;;;;;;13.80;10.07;;;0.20;1.00;0.70;101223.00;;;;4998599;28;21013;-78
2022/03/09 04:53:31;;;;;;;14.63;10.40;;;0.10;1.00;0.90;101240.00;;;;5001241;28;20478;-80
2022/03/09 04:55:59;;;;;;;14.53;10.47;;;0.20;1.00;0.80;66434.00;;;;4998081;28;20511;-78
2022/03/09 04:58:28;;;;;;;14.63;10.27;;;0.20;1.00;0.70;101231.00;;;;5014101;28;20461;-79
2022/03/09 05:00:58;;;;;;;12.87;10.30;;;0.20;1.00;217.30;156938.00;;;;5014791;28;21682;-79
2022/03/09 05:03:27;;;;;;;15.87;10.27;;;0.60;1.00;0.70;66381.00;;;;4997689;28;20542;-77
2022/03/09 05:05:55;;;;;;;15.50;10.97;;;0.10;1.00;0.50;66381.00;;;;5007296;28;20475;-79
2022/03/09 05:08:24;;;;;;;14.03;10.43;;;0.00;1.00;0.70;101237.00;;;;5023883;28;20453;-79
2022/03/09 05:10:53;;;;;;;12.53;9.87;;;0.00;1.00;0.90;101251.00;;;;5013484;28;20457;-79
2022/03/09 05:13:21;;;;;;;16.60;10.87;;;0.10;1.00;0.60;101236.00;;;;5022082;28;20847;-80
2022/03/09 05:15:49;;;;;;;12.83;10.50;;;0.10;1.00;0.50;101270.00;;;;5005524;28;20481;-78
2022/03/09 05:18:19;;;;;;;17.73;10.30;;;0.00;1.00;0.40;101258.00;;;;5004427;28;20443;-79
2022/03/09 05:20:48;;;;;;;13.83;10.90;;;-0.10;1.00;0.50;101251.00;;;;5009138;28;20211;-78
2022/03/09 05:23:17;;;;;;;14.55;11.20;;;-0.10;1.00;0.40;101223.00;;;;5016525;28;20450;-78
2022/03/09 05:25:45;;;;;;;15.63;11.50;;;-0.10;1.00;0.40;101237.00;;;;5012245;28;20262;-79
2022/03/09 05:28:13;;;;;;;13.23;11.47;;;-0.20;1.00;0.50;101228.00;;;;4996552;28;20455;-78
2022/03/09 05:30:42;;;;;;;13.57;12.13;;;-0.10;1.00;0.40;101258.00;;;;4990442;28;20454;-78
2022/03/09 05:33:10;;;;;;;14.57;11.60;;;0.10;1.00;0.40;101249.00;;;;5000097;28;20648;-79
2022/03/09 05:35:41;;;;;;;15.70;12.00;;;-0.20;1.00;0.60;101250.00;;;;4998725;28;20483;-78
2022/03/09 05:38:09;;;;;;;12.50;9.90;;;-0.10;1.00;217.30;156922.00;;;;4998399;28;20450;-79
2022/03/09 05:40:42;;;;;;;15.83;10.63;;;0.00;1.00;0.50;101255.00;;;;4990530;28;20451;-78
2022/03/09 05:43:10;;;;;;;12.50;10.97;;;0.00;1.00;0.60;101220.00;;;;5013264;28;20447;-79
2022/03/09 05:45:38;;;;;;;18.10;11.30;;;0.00;1.00;0.60;101243.00;;;;5013640;28;20961;-80
2022/03/09 05:48:07;;;;;;;18.53;12.23;;;0.00;1.00;0.50;101240.00;;;;4997986;28;21341;-80
2022/03/09 05:50:37;;;;;;;18.83;13.20;;;0.00;1.00;0.50;101250.00;;;;4994254;28;20473;-80
2022/03/09 05:53:07;;;;;;;15.82;11.23;;;0.30;1.00;0.60;101264.00;;;;5012028;28;20953;-80
2022/03/09 05:55:35;;;;;;;19.75;12.52;;;-0.10;1.00;0.80;101259.00;;;;4997497;28;20586;-81
2022/03/09 05:58:04;;;;;;;15.65;12.20;;;0.00;1.00;0.70;101224.00;;;;5006060;28;20207;-80
2022/03/09 06:00:34;;;;;;;18.87;12.67;;;0.00;1.00;0.60;101257.00;;;;4993265;28;20197;-81
2022/03/09 06:03:02;;;;;;;20.93;13.13;;;0.00;1.00;0.50;101270.00;;;;4998272;28;20515;-80
2022/03/09 06:05:32;;;;;;;18.97;12.37;;;-0.10;1.00;0.60;101288.00;;;;5007017;28;20475;-80
2022/03/09 06:08:00;;;;;;;15.25;11.38;;;0.00;1.00;0.80;101297.00;;;;5014404;28;20477;-80
2022/03/09 06:10:30;;;;;;;18.63;12.30;;;0.10;1.00;0.80;101257.00;;;;5012042;28;20184;-78
2022/03/09 06:12:58;;;;;;;15.95;11.85;;;0.10;1.00;0.90;101266.00;;;;5011409;28;20550;-79
2022/03/09 06:15:27;;;;;;;16.67;12.13;;;0.20;1.00;0.80;101263.00;;;;4996155;28;20499;-79
2022/03/09 06:17:55;;;;;;;18.47;11.97;;;0.20;1.00;0.80;101275.00;;;;5004507;28;20498;-78
2022/03/09 06:20:25;;;;;;;20.23;13.97;;;0.30;1.00;0.90;101294.00;;;;4982553;28;20470;-78
2022/03/09 06:22:54;;;;;;;19.13;13.53;;;0.30;1.00;1.00;66472.00;;;;4991285;28;20449;-78
2022/03/09 06:25:23;;;;;;;16.90;11.93;;;0.30;1.00;217.30;157178.00;;;;5000361;28;20514;-79
2022/03/09 06:27:56;;;;;;;15.20;11.75;;;0.40;1.00;1.20;101282.00;;;;5002877;28;20338;-79
2022/03/09 06:30:28;;;;;;;18.60;11.70;;;0.60;1.00;1.40;101289.00;;;;4990827;28;20253;-78
2022/03/09 06:32:57;;;;;;;13.63;11.13;;;0.70;1.00;1.40;101301.00;;;;5021761;28;20451;-79
2022/03/09 06:35:26;;;;;;;18.50;13.50;;;1.20;1.00;217.30;157295.00;;;;5018641;28;20572;-79
2022/03/09 06:37:57;;;;;;;17.70;13.13;;;0.80;1.00;217.30;157424.00;;;;5025449;28;20494;-80
2022/03/09 06:40:26;;;;;;;16.67;10.27;;;1.00;1.00;2.00;101279.00;;;;5013398;28;20450;-79
2022/03/09 06:42:56;;;;;;;17.40;12.43;;;1.20;1.00;2.10;101272.00;;;;5007135;28;20492;-79
2022/03/09 06:45:26;;;;;;;12.93;10.57;;;1.40;1.00;2.30;101306.00;;;;5011393;28;20481;-78
2022/03/09 06:47:55;;;;;;;14.20;10.37;;;1.50;1.00;2.40;101297.00;;;;4997775;28;20485;-77
2022/03/09 06:50:24;;;;;;;11.50;9.60;;;2.10;1.00;2.40;101289.00;;;;4985427;28;20846;-78
2022/03/09 06:52:52;;;;;;;17.87;11.13;;;1.70;1.00;2.50;101241.00;;;;5005173;28;20455;-78
2022/03/09 06:55:21;;;;;;;16.60;10.70;;;1.90;1.00;2.60;101298.00;;;;5004756;28;20482;-78
2022/03/09 06:57:49;;;;;;;22.07;12.63;;;1.90;1.00;2.70;101297.00;;;;5006090;28;20907;-81
2022/03/09 07:00:20;;;;;;;14.63;10.60;;;2.00;1.00;2.80;101315.00;;;;5005120;28;20454;-77
2022/03/09 07:02:49;;;;;;;14.17;10.30;;;2.10;1.00;3.00;101306.00;;;;5003203;28;20562;-78
2022/03/09 07:05:17;;;;;;;16.00;10.27;;;2.20;1.00;3.10;101313.00;;;;4989645;28;20482;-78
2022/03/09 07:07:46;;;;;;;13.63;10.23;;;2.40;1.00;3.10;101290.00;;;;4988652;28;21398;-79
2022/03/09 07:10:14;;;;;;;15.07;11.07;;;2.40;1.00;3.20;101305.00;;;;4984430;28;20485;-78
2022/03/09 07:15:48;;;;;;;14.73;10.30;;;2.60;1.00;3.20;101319.00;;;;4991976;28;20486;-78
2022/03/09 07:18:16;;;;;;;23.27;10.30;;;2.70;1.00;3.70;101333.00;;;;4978989;28;20545;-78
2022/03/09 07:20:45;;;;;;;18.83;11.30;;;2.90;1.00;3.80;101323.00;;;;4993170;28;20616;-78
2022/03/09 07:23:13;;;;;;;18.73;11.20;;;3.00;1.00;4.00;101332.00;;;;4980841;28;20464;-78
2022/03/09 07:25:43;;;;;;;22.63;10.80;;;3.20;1.00;3.80;101324.00;;;;4998363;28;20474;-78
2022/03/09 07:28:11;;;;;;;19.87;9.50;;;3.30;1.00;3.90;101324.00;;;;4990726;28;20482;-78
2022/03/09 07:30:40;;;;;;;14.53;9.20;;;3.30;1.00;4.00;101322.00;;;;4986664;28;20566;-80
2022/03/09 07:33:16;;;;;;;14.03;9.70;;;3.60;1.00;4.10;101330.00;;;;5000780;28;20635;-79
2022/03/09 07:35:46;;;;;;;15.80;9.40;;;3.00;1.00;4.10;101307.00;;;;5010668;28;20576;-79
2022/03/09 07:38:15;;;;;;;13.97;9.77;;;3.50;1.00;4.20;101325.00;;;;4993473;28;20939;-78
2022/03/09 07:40:43;;;;;;;12.00;9.23;;;3.60;1.00;4.20;101336.00;;;;4989468;28;20462;-78
2022/03/09 07:43:12;;;;;;;12.70;9.30;;;3.60;1.00;4.20;101336.00;;;;5004556;28;20465;-79
2022/03/09 07:45:46;;;;;;;13.70;9.40;;;3.70;1.00;4.30;101339.00;;;;4987810;28;20485;-78
2022/03/09 07:48:16;;;;;;;10.33;7.90;;;3.70;1.00;4.30;101324.00;;;;4999255;28;20477;-81
2022/03/09 07:50:45;;;;;;;13.30;9.53;;;3.90;1.00;4.50;101326.00;;;;4999730;28;20567;-80
2022/03/09 07:53:13;;;;;;;12.30;9.10;;;4.00;1.00;4.70;101315.00;;;;5008682;28;20462;-81
2022/03/09 07:55:42;;;;;;;12.70;9.60;;;4.00;1.00;4.60;101337.00;;;;5003851;28;20531;-81
2022/03/09 07:58:10;;;;;;;12.13;8.77;;;4.30;1.00;4.70;101352.00;;;;5001065;28;20465;-82
2022/03/09 08:00:39;;;;;;;15.40;9.20;;;4.10;1.00;4.70;101350.00;;;;5000816;28;20453;-80
2022/03/09 08:03:08;;;;;;;10.30;8.67;;;4.20;1.00;4.90;101369.00;;;;5003502;28;20442;-81
2022/03/09 08:05:57;;;;;;;12.00;9.27;;;4.30;1.00;5.00;101364.00;;;;5001727;28;20481;-80
2022/03/09 08:08:26;;;;;;;16.10;9.20;;;4.40;1.00;5.00;101352.00;;;;5016353;28;20703;-80
2022/03/09 08:10:54;;;;;;;11.73;8.60;;;4.50;1.00;5.10;101344.00;;;;5001365;28;20513;-79
2022/03/09 08:13:23;;;;;;;14.70;10.60;;;4.60;1.00;5.30;101347.00;;;;5001859;28;21019;-83
2022/03/09 08:15:52;;;;;;;14.93;9.67;;;5.00;1.00;5.30;101346.00;;;;5000500;28;20516;-81
2022/03/09 08:18:20;;;;;;;14.93;8.90;;;4.80;1.00;5.50;101343.00;;;;5014227;28;20462;-82
2022/03/09 08:20:49;;;;;;;18.03;11.37;;;4.90;1.00;5.60;101365.00;;;;5000287;28;20469;-81
2022/03/09 08:23:18;;;;;;;19.60;9.70;;;5.10;1.00;5.70;101335.00;;;;5019832;28;20520;-81
2022/03/09 08:25:47;;;;;;;12.93;10.10;;;5.50;1.00;5.60;101348.00;;;;5001912;28;20486;-79
2022/03/09 08:28:15;;;;;;;13.43;10.00;;;5.10;1.00;5.70;101336.00;;;;4988824;28;20483;-80
2022/03/09 08:30:45;;;;;;;13.67;9.07;;;5.20;1.00;5.80;101328.00;;;;4995833;28;20546;-80
2022/03/09 08:33:15;;;;;;;12.80;9.70;;;5.30;1.00;5.70;101312.00;;;;5005260;28;20954;-80
2022/03/09 08:35:44;;;;;;;11.30;9.10;;;5.30;1.00;5.90;101321.00;;;;4986251;28;21204;-80
2022/03/09 08:38:12;;;;;;;12.80;10.57;;;5.40;1.00;6.00;101334.00;;;;5008643;28;20466;-79
2022/03/09 08:40:42;;;;;;;13.50;10.03;;;5.90;1.00;6.00;101313.00;;;;5003503;28;20490;-81
2022/03/09 08:43:10;;;;;;;11.20;10.00;;;5.60;1.00;6.10;101332.00;;;;4994079;28;20553;-80
2022/03/09 08:45:39;;;;;;;15.90;9.57;;;5.60;1.00;6.20;101336.00;;;;5006693;28;20482;-80
2022/03/09 08:48:08;;;;;;;12.97;10.13;;;5.70;1.00;6.30;101343.00;;;;4977890;28;20513;-80
2022/03/09 08:50:36;;;;;;;13.17;9.97;;;5.90;1.00;6.30;101331.00;;;;5008467;28;20497;-79
2022/03/09 08:53:09;;;;;;;17.60;11.00;;;5.90;1.00;6.30;101347.00;;;;5010397;28;20501;-80
2022/03/09 08:55:37;;;;;;;16.53;10.00;;;5.90;1.00;6.40;101314.00;;;;4990239;28;20573;-80
2022/03/09 08:58:07;;;;;;;15.57;10.43;;;5.90;1.00;6.50;101294.00;;;;4987470;28;20559;-80
2022/03/09 09:00:36;;;;;;;13.20;9.97;;;6.10;1.00;6.60;101335.00;;;;5027519;28;20462;-81
2022/03/09 09:03:05;;;;;;;12.77;10.77;;;6.20;1.00;6.60;101328.00;;;;5003133;28;20458;-80
2022/03/09 09:05:34;;;;;;;16.40;10.70;;;6.20;1.00;6.80;101310.00;;;;5004493;28;20563;-80
2022/03/09 09:08:02;;;;;;;14.07;9.77;;;6.30;1.00;6.70;101317.00;;;;4989150;28;20488;-80
2022/03/09 09:10:35;;;;;;;12.40;9.73;;;6.40;1.00;6.80;101330.00;;;;5012703;28;20463;-81
2022/03/09 09:13:07;;;;;;;14.97;9.43;;;6.50;1.00;6.90;101326.00;;;;5023795;28;20530;-80
2022/03/09 09:15:36;;;;;;;15.33;9.67;;;6.50;1.00;6.90;101320.00;;;;5024295;28;20487;-80
2022/03/09 09:18:06;;;;;;;18.63;10.50;;;6.60;1.00;7.00;101319.00;;;;5014555;28;20514;-80
2022/03/09 09:20:48;;;;;;;11.90;9.53;;;6.70;1.00;7.10;101307.00;;;;5017231;28;20488;-80
2022/03/09 09:23:17;;;;;;;16.10;10.67;;;6.80;1.00;7.20;101350.00;;;;5030744;28;20461;-80
2022/03/09 09:25:48;;;;;;;13.43;9.90;;;6.90;1.00;7.30;101323.00;;;;4991688;28;20502;-79
2022/03/09 09:28:18;;;;;;;18.40;11.20;;;6.90;1.00;7.50;101328.00;;;;4993196;28;20592;-82
2022/03/09 09:30:48;;;;;;;15.53;9.63;;;7.10;1.00;7.50;101349.00;;;;4987139;28;20786;-81
2022/03/09 09:33:16;;;;;;;14.77;10.10;;;7.10;1.00;7.60;101318.00;;;;4991038;28;20576;-79
2022/03/09 09:35:49;;;;;;;19.13;10.57;;;7.20;1.00;7.60;101319.00;;;;5005862;28;20487;-81
2022/03/09 09:38:18;;;;;;;11.27;10.00;;;7.30;1.00;7.60;101334.00;;;;4995686;28;20489;-79
2022/03/09 09:40:51;;;;;;;9.33;8.33;;;7.30;1.00;7.70;101328.00;;;;4995715;28;20454;-80
2022/03/09 09:43:22;;;;;;;12.97;9.37;;;7.40;1.00;7.80;101291.00;;;;5012030;28;20532;-79
2022/03/09 09:45:52;;;;;;;11.90;8.77;;;7.50;1.00;7.90;101317.00;;;;5029246;28;20486;-81
2022/03/09 09:48:20;;;;;;;12.33;9.07;;;7.60;1.00;8.00;101294.00;;;;5025374;28;21437;-80
2022/03/09 09:50:54;;;;;;;11.73;9.70;;;7.70;1.00;8.10;101327.00;;;;5011857;28;20485;-81
2022/03/09 09:53:24;;;;;;;12.30;9.63;;;7.80;1.00;8.00;101272.00;;;;5005226;28;20463;-81
2022/03/09 09:55:52;;;;;;;11.93;9.63;;;7.80;1.00;8.10;101323.00;;;;5003528;28;20489;-81
2022/03/09 09:58:23;;;;;;;15.40;10.37;;;7.90;1.00;8.10;101330.00;;;;4999746;28;20526;-81
2022/03/09 10:00:54;;;;;;;11.90;9.20;;;7.80;1.00;8.30;101306.00;;;;5005306;28;20466;-80
2022/03/09 10:03:22;;;;;;;13.20;9.30;;;8.00;1.00;8.40;101324.00;;;;5014979;28;20466;-80
2022/03/09 10:05:51;;;;;;;12.33;9.20;;;8.20;1.00;8.60;101317.00;;;;5031469;28;20519;-79
2022/03/09 10:08:20;;;;;;;12.60;10.40;;;8.40;1.00;8.50;101333.00;;;;5024981;28;20495;-80
2022/03/09 10:10:57;;;;;;;13.43;9.17;;;8.30;1.00;8.60;101310.00;;;;5014268;28;20458;-80
2022/03/09 10:13:29;;;;;;;15.57;9.40;;;8.40;1.00;8.70;101302.00;;;;5013057;28;20459;-80
2022/03/09 10:16:19;;;;;;;20.03;9.40;;;8.50;1.00;8.70;101314.00;;;;5012543;28;20529;-79
2022/03/09 10:18:53;;;;;;;14.30;9.20;;;8.40;1.00;8.70;101307.00;;;;5007024;28;20463;-80
2022/03/09 10:21:25;;;;;;;10.80;9.40;;;8.50;1.00;8.80;101319.00;;;;4999392;28;20559;-80
2022/03/09 10:24:01;;;;;;;14.03;9.83;;;8.60;1.00;9.00;101334.00;;;;4994256;28;20569;-79
2022/03/09 10:26:46;;;;;;;11.73;10.17;;;8.70;1.00;9.10;101313.00;;;;4994559;28;20496;-79
2022/03/09 10:29:18;;;;;;;11.80;8.73;;;8.90;1.00;9.20;101324.00;;;;5004617;28;20483;-80
2022/03/09 10:31:50;;;;;;;12.00;9.40;;;9.00;1.00;9.40;101325.00;;;;4986598;28;20505;-76
2022/03/09 10:34:24;;;;;;;13.57;11.30;;;9.10;1.00;9.50;101343.00;;;;4994592;28;20472;-75
2022/03/09 10:36:58;;;;;;;12.50;10.50;;;9.30;1.00;9.60;101336.00;;;;5005122;28;20490;-75
2022/03/09 10:39:30;;;;;;;11.30;9.63;;;9.40;1.00;9.60;101327.00;;;;4996146;28;20552;-76
2022/03/09 10:41:59;;;;;;;11.80;9.80;;;9.40;1.00;9.60;101338.00;;;;4982546;28;20468;-75
2022/03/09 10:44:47;;;;;;;14.03;9.20;;;9.40;1.00;9.70;101336.00;;;;4986063;28;20456;-76
2022/03/09 10:47:31;;;;;;;10.93;9.70;;;9.50;1.00;9.80;101315.00;;;;4979001;28;20462;-75
2022/03/09 10:50:16;;;;;;;11.00;8.60;;;9.50;1.00;9.90;101342.00;;;;4986522;28;20548;-75
2022/03/09 10:52:51;;;;;;;11.80;8.70;;;9.60;1.00;10.00;101331.00;;;;4976119;28;21046;-75
2022/03/09 10:55:30;;;;;;;10.50;8.93;;;9.80;1.00;10.10;101340.00;;;;4982219;28;20513;-75
2022/03/09 10:58:12;;;;;;;9.47;8.53;;;9.90;1.00;10.10;101331.00;;;;4981590;28;20976;-74
2022/03/09 11:00:44;;;;;;;12.03;9.17;;;9.90;1.00;10.20;101326.00;;;;4988661;28;20550;-76
2022/03/09 11:03:16;;;;;;;11.20;8.93;;;10.30;1.00;10.30;101344.00;;;;4985927;28;20844;-81
2022/03/09 11:05:51;;;;;;;13.20;9.40;;;10.10;1.00;10.50;101304.00;;;;5019428;28;20602;-81
2022/03/09 11:08:23;;;;;;;9.90;8.20;;;10.30;1.00;10.60;101336.00;;;;5003342;28;20553;-80
2022/03/09 11:10:52;;;;;;;11.90;8.50;;;10.50;1.00;10.70;101321.00;;;;5000904;28;20466;-80
2022/03/09 11:13:22;;;;;;;9.23;8.20;;;10.60;1.00;10.80;101312.00;;;;5002092;28;20498;-79